Time;durP1;ratioP1;P1;durP2;ratioP2;P2;SDS_P1;SDS_P2;PMS_P1;PMS_P2;Temp;Humidity;BMP_temperature;BMP_pressure;BME280_temperature;BME280_humidity;BME280_pressure;Samples;Min_cycle;Max_cycle;Signal;HPM_P1;HPM_P2
2022/11/15 00:01:25;;;;;;;18.48;12.75;;;;;;;7.75;100.00;100074.25;5014357;28;20210;-73
2022/11/15 00:03:52;;;;;;;20.60;14.13;;;;;;;7.69;100.00;100078.94;5017103;28;20202;-73
2022/11/15 00:06:20;;;;;;;20.55;12.80;;;;;;;7.68;100.00;100076.31;5008347;28;20710;-73
2022/11/15 00:08:47;;;;;;;16.92;12.85;;;;;;;7.64;100.00;100070.22;5014759;28;20226;-73
2022/11/15 00:11:13;;;;;;;18.55;12.43;;;;;;;7.61;100.00;100067.63;5013962;28;20558;-74
2022/11/15 00:13:40;;;;;;;17.48;13.30;;;;;;;7.59;100.00;100071.31;5008932;28;20199;-74
2022/11/15 00:16:07;;;;;;;20.08;13.05;;;;;;;7.51;100.00;100077.84;4991305;28;20314;-74
2022/11/15 00:18:33;;;;;;;17.58;11.73;;;;;;;7.56;100.00;100066.94;5016304;28;20218;-74
2022/11/15 00:21:06;;;;;;;17.50;13.43;;;;;;;7.56;100.00;100066.06;5033431;28;20264;-76
2022/11/15 00:23:35;;;;;;;15.10;12.10;;;;;;;7.64;100.00;100067.53;5035157;28;20281;-75
2022/11/15 00:26:01;;;;;;;15.35;12.05;;;;;;;7.68;100.00;100060.22;5034578;28;20213;-76
2022/11/15 00:28:28;;;;;;;15.40;11.82;;;;;;;7.80;100.00;100062.44;5028338;28;20266;-72
2022/11/15 00:30:54;;;;;;;16.13;12.48;;;;;;;7.76;100.00;100067.97;5032061;28;20199;-73
2022/11/15 00:33:21;;;;;;;15.35;12.52;;;;;;;7.70;100.00;100066.41;5033677;28;20217;-74
2022/11/15 00:35:48;;;;;;;18.02;13.45;;;;;;;7.71;100.00;100069.03;5038402;28;20199;-76
2022/11/15 00:38:14;;;;;;;21.40;16.95;;;;;;;7.79;100.00;100058.00;5006905;28;20205;-76
2022/11/15 00:40:42;;;;;;;19.70;15.13;;;;;;;7.87;100.00;100060.41;5018606;28;20294;-74
2022/11/15 00:43:09;;;;;;;22.95;14.57;;;;;;;7.88;100.00;100062.13;5017041;28;20282;-73
2022/11/15 00:45:36;;;;;;;17.08;12.85;;;;;;;7.92;100.00;100055.72;5014900;28;20228;-74
2022/11/15 00:48:03;;;;;;;20.67;13.77;;;;;;;7.92;100.00;100053.03;5010245;28;20205;-77
2022/11/15 00:50:30;;;;;;;21.88;14.15;;;;;;;7.93;100.00;100055.63;5013447;28;20237;-74
2022/11/15 00:52:56;;;;;;;21.65;15.13;;;;;;;7.96;100.00;100049.28;5015265;28;20209;-75
2022/11/15 00:55:23;;;;;;;18.48;14.90;;;;;;;8.05;100.00;100038.19;5014206;28;20220;-74
2022/11/15 00:57:50;;;;;;;20.77;14.32;;;;;;;8.19;100.00;100039.44;5006276;28;20198;-75
2022/11/15 01:00:17;;;;;;;24.25;17.85;;;;;;;8.11;100.00;100045.97;5008034;28;20664;-74
2022/11/15 01:02:44;;;;;;;20.00;13.52;;;;;;;8.08;100.00;100042.56;5013142;28;20680;-75
2022/11/15 01:05:10;;;;;;;18.75;13.57;;;;;;;8.08;100.00;100035.38;5014624;28;20230;-76
2022/11/15 01:07:37;;;;;;;16.73;13.52;;;;;;;8.09;100.00;100033.56;5014068;28;20202;-74
2022/11/15 01:10:04;;;;;;;19.85;12.80;;;;;;;8.08;100.00;100032.69;5012171;28;21490;-74
2022/11/15 01:12:31;;;;;;;29.08;18.73;;;;;;;8.01;100.00;100035.69;5014187;28;20681;-75
2022/11/15 01:14:59;;;;;;;26.67;20.10;;;;;;;8.05;100.00;100034.63;5014377;28;20202;-75
2022/11/15 01:17:26;;;;;;;19.77;13.85;;;;;;;8.08;100.00;100030.00;5012171;28;20587;-74
2022/11/15 01:19:52;;;;;;;24.38;16.40;;;;;;;8.09;100.00;100037.09;5013237;28;20280;-74
2022/11/15 01:22:19;;;;;;;19.75;14.73;;;;;;;8.12;100.00;100031.63;5015379;28;20199;-75
2022/11/15 01:24:46;;;;;;;16.77;13.05;;;;;;;8.04;100.00;100025.72;5014436;28;20596;-75
2022/11/15 01:27:12;;;;;;;15.60;12.32;;;;;;;8.09;100.00;100033.56;5013235;28;20578;-73
2022/11/15 01:29:39;;;;;;;16.80;11.85;;;;;;;8.01;100.00;100033.88;5013370;28;20219;-75
2022/11/15 01:32:07;;;;;;;19.85;12.32;;;;;;;7.97;100.00;100023.34;5006300;28;20226;-73
2022/11/15 01:34:33;;;;;;;17.55;13.27;;;;;;;7.92;100.00;100032.44;5004934;28;20199;-74
2022/11/15 01:37:00;;;;;;;16.67;13.13;;;;;;;7.97;100.00;100020.66;5015705;28;20654;-75
2022/11/15 01:39:27;;;;;;;23.80;11.98;;;;;;;8.01;100.00;100028.53;5025217;28;20250;-77
2022/11/15 01:41:54;;;;;;;15.60;12.10;;;;;;;8.03;100.00;100029.34;5016069;28;20272;-75
2022/11/15 01:44:40;;;;;;;18.67;12.30;;;;;;;8.07;100.00;100027.38;5016040;28;20202;-74
2022/11/15 01:47:12;;;;;;;16.50;11.30;;;;;;;8.00;100.00;100020.53;5013331;28;20250;-75
2022/11/15 01:49:46;;;;;;;16.48;12.10;;;;;;;7.99;100.00;100011.63;5013824;28;20230;-74
2022/11/15 01:52:17;;;;;;;12.77;11.02;;;;;;;8.10;100.00;100011.19;5019108;28;20200;-75
2022/11/15 01:54:44;;;;;;;15.77;12.48;;;;;;;8.11;100.00;100011.09;5010685;28;20204;-75
2022/11/15 01:57:12;;;;;;;18.52;12.13;;;;;;;8.12;100.00;100012.88;5005452;28;20203;-74
2022/11/15 01:59:43;;;;;;;16.95;13.10;;;;;;;8.23;100.00;100008.84;5010589;28;20218;-74
2022/11/15 02:02:12;;;;;;;14.10;11.45;;;;;;;8.28;100.00;100018.47;5005951;28;20202;-74
2022/11/15 02:04:41;;;;;;;16.60;13.18;;;;;;;8.24;100.00;100014.16;5008183;28;20203;-74
2022/11/15 02:07:11;;;;;;;14.30;12.10;;;;;;;8.33;100.00;100015.59;5011291;28;20595;-74
2022/11/15 02:09:39;;;;;;;13.85;11.65;;;;;;;8.34;100.00;100012.84;5002919;28;20219;-76
2022/11/15 02:12:08;;;;;;;20.25;13.90;;;;;;;8.37;100.00;100003.78;5010578;28;20679;-75
2022/11/15 02:14:36;;;;;;;17.70;13.40;;;;;;;8.45;100.00;99993.63;5011787;28;20309;-75
2022/11/15 02:17:17;;;;;;;19.63;14.52;;;;;;;8.52;100.00;99996.91;5012584;28;20205;-73
2022/11/15 02:20:21;;;;;;;20.67;11.95;;;;;;;8.61;100.00;99985.75;5008605;28;20237;-73
2022/11/15 02:23:07;;;;;;;18.23;11.55;;;;;;;8.61;100.00;99987.59;4928928;29;20284;-75
2022/11/15 02:25:42;;;;;;;17.63;12.65;;;;;;;8.63;100.00;99974.97;4931970;29;20233;-73
2022/11/15 02:28:28;;;;;;;16.70;12.18;;;;;;;8.67;100.00;99977.44;4933630;29;20204;-73
2022/11/15 02:31:04;;;;;;;19.00;12.23;;;;;;;8.66;100.00;99964.97;4938191;29;20260;-75
2022/11/15 02:33:39;;;;;;;15.77;12.20;;;;;;;8.68;100.00;99960.41;4937845;29;20690;-74
2022/11/15 02:36:13;;;;;;;14.00;11.88;;;;;;;8.67;100.00;99961.34;4932957;29;20198;-74
2022/11/15 02:38:48;;;;;;;18.10;12.95;;;;;;;8.65;100.00;99959.66;4933826;29;20257;-73
2022/11/15 02:41:20;;;;;;;15.65;11.38;;;;;;;8.70;100.00;99965.69;4929675;29;20232;-74
2022/11/15 02:43:57;;;;;;;15.43;11.45;;;;;;;8.58;100.00;99967.13;4933192;29;20197;-74
2022/11/15 02:49:17;;;;;;;16.45;11.95;;;;;;;8.39;100.00;99967.03;4929956;29;20681;-73
2022/11/15 02:51:47;;;;;;;15.35;10.52;;;;;;;8.37;100.00;99968.91;4933567;29;20205;-76
2022/11/15 02:54:16;;;;;;;13.07;11.38;;;;;;;8.20;100.00;99966.06;4931702;29;20201;-76
2022/11/15 02:56:45;;;;;;;12.73;10.82;;;;;;;8.15;100.00;99960.91;4930734;29;20663;-74
2022/11/15 02:59:24;;;;;;;18.40;11.85;;;;;;;8.11;100.00;99952.09;4939465;28;20270;-74
2022/11/15 03:02:05;;;;;;;17.80;11.55;;;;;;;8.00;100.00;99949.00;5012262;28;20199;-73
2022/11/15 03:04:42;;;;;;;16.00;11.38;;;;;;;7.90;100.00;99950.34;5004207;28;20294;-73
2022/11/15 03:07:14;;;;;;;15.98;11.70;;;;;;;7.82;100.00;99953.31;5010725;28;20210;-72
2022/11/15 03:09:45;;;;;;;18.75;11.15;;;;;;;7.76;100.00;99953.59;5008344;28;20307;-73
2022/11/15 03:12:24;;;;;;;16.02;11.73;;;;;;;7.74;100.00;99944.72;5009872;28;20283;-74
2022/11/15 03:14:57;;;;;;;15.73;11.05;;;;;;;7.75;100.00;99948.28;5016721;28;20290;-74
2022/11/15 03:17:30;;;;;;;16.92;11.52;;;;;;;7.79;100.00;99947.22;5012513;28;20285;-74
2022/11/15 03:19:59;;;;;;;13.55;11.07;;;;;;;7.85;100.00;99953.19;5013934;28;20215;-74
2022/11/15 03:22:29;;;;;;;16.48;11.82;;;;;;;7.81;100.00;99956.06;5016134;28;20191;-73
2022/11/15 03:25:00;;;;;;;17.85;12.32;;;;;;;7.79;100.00;99953.44;5015276;28;20217;-73
2022/11/15 03:27:32;;;;;;;17.65;14.35;;;;;;;7.76;100.00;99956.25;5007556;28;20202;-73
2022/11/15 03:30:04;;;;;;;17.38;13.05;;;;;;;7.71;100.00;99943.06;5014599;28;20215;-73
2022/11/15 03:32:36;;;;;;;18.92;13.65;;;;;;;7.70;100.00;99956.50;5008846;28;20214;-74
2022/11/15 03:35:07;;;;;;;17.50;12.82;;;;;;;7.75;100.00;99954.50;5010733;28;20285;-74
2022/11/15 03:37:39;;;;;;;15.43;12.93;;;;;;;7.73;100.00;99951.00;5014070;28;20213;-74
2022/11/15 03:40:07;;;;;;;18.42;13.00;;;;;;;7.67;100.00;99946.78;5013625;28;20218;-73
2022/11/15 03:42:40;;;;;;;15.65;12.30;;;;;;;7.68;100.00;99953.88;5017052;28;20198;-73
2022/11/15 03:45:15;;;;;;;15.55;12.60;;;;;;;7.73;100.00;99951.91;5015221;28;20195;-73
2022/11/15 03:47:49;;;;;;;18.88;12.75;;;;;;;7.77;100.00;99949.94;5008788;28;20285;-71
2022/11/15 03:50:19;;;;;;;20.90;12.75;;;;;;;7.78;100.00;99942.78;5024168;28;20256;-74
2022/11/15 03:52:48;;;;;;;17.42;12.98;;;;;;;7.82;100.00;99947.09;5018902;28;20212;-74
2022/11/15 03:55:18;;;;;;;16.92;13.50;;;;;;;7.79;100.00;99944.53;5017315;28;20245;-74
2022/11/15 03:57:45;;;;;;;19.05;14.75;;;;;;;7.82;100.00;99941.72;5008234;28;20226;-74
2022/11/15 04:00:12;;;;;;;17.77;13.85;;;;;;;7.92;100.00;99940.41;5013640;28;20227;-72
2022/11/15 04:02:39;;;;;;;17.02;12.43;;;;;;;7.91;100.00;99947.59;5008946;28;20257;-73
2022/11/15 04:05:07;;;;;;;15.25;12.13;;;;;;;7.88;100.00;99950.38;5013408;28;20199;-74
2022/11/15 04:07:34;;;;;;;16.48;12.90;;;;;;;7.94;100.00;99955.50;5013653;28;20310;-74
2022/11/15 04:10:03;;;;;;;17.75;12.57;;;;;;;8.00;100.00;99958.84;5008701;28;20227;-73
2022/11/15 04:12:32;;;;;;;15.40;12.18;;;;;;;8.04;100.00;99947.94;5009773;28;20215;-72
2022/11/15 04:15:10;;;;;;;16.45;11.15;;;;;;;8.08;100.00;99954.06;5006455;28;20294;-72
2022/11/15 04:17:39;;;;;;;19.42;13.55;;;;;;;8.13;100.00;99950.22;5014053;28;20676;-73
2022/11/15 04:25:40;;;;;;;19.27;11.82;;;;;;;8.13;100.00;99944.84;5015005;28;20583;-72
2022/11/15 04:28:07;;;;;;;17.60;14.57;;;;;;;8.18;100.00;99938.44;5014396;28;20206;-72
2022/11/15 04:30:33;;;;;;;22.15;14.23;;;;;;;8.18;100.00;99941.97;5006547;28;20227;-73
2022/11/15 04:33:00;;;;;;;22.88;16.10;;;;;;;8.20;100.00;99939.25;5014097;28;20211;-73
2022/11/15 04:35:28;;;;;;;30.50;24.08;;;;;;;8.28;100.00;99932.63;5013800;28;20205;-73
2022/11/15 04:37:54;;;;;;;22.38;15.60;;;;;;;8.33;100.00;99935.09;5015678;28;20194;-73
2022/11/15 04:40:21;;;;;;;17.00;13.85;;;;;;;8.33;100.00;99937.78;5014461;28;20229;-74
2022/11/15 04:42:47;;;;;;;18.77;14.15;;;;;;;8.30;100.00;99936.09;4997928;28;20195;-72
2022/11/15 04:45:14;;;;;;;16.80;13.50;;;;;;;8.33;100.00;99935.09;5016007;28;20198;-75
2022/11/15 04:47:43;;;;;;;20.13;13.88;;;;;;;8.38;100.00;99934.88;5010328;28;20230;-75
2022/11/15 04:50:12;;;;;;;15.25;12.32;;;;;;;8.42;100.00;99934.72;5008616;28;20314;-73
2022/11/15 04:52:40;;;;;;;16.92;12.80;;;;;;;8.48;100.00;99926.41;5009599;28;20291;-74
2022/11/15 04:55:08;;;;;;;15.00;12.00;;;;;;;8.48;100.00;99917.47;5013735;28;20232;-74
2022/11/15 04:57:34;;;;;;;17.73;13.50;;;;;;;8.53;100.00;99918.16;5007029;28;20281;-72
2022/11/15 05:00:01;;;;;;;16.88;12.52;;;;;;;8.53;100.00;99916.34;5022142;28;20198;-71
2022/11/15 05:04:18;;;;;;;14.38;11.95;;;;;;;8.58;100.00;99926.00;5033961;28;20183;-71
2022/11/15 05:05:13;;;;;;;20.15;14.48;;;;;;;8.57;100.00;99919.75;5035451;28;20197;-71
2022/11/15 05:07:41;;;;;;;18.70;13.37;;;;;;;8.62;100.00;99922.25;5035695;28;20219;-70
2022/11/15 05:10:09;;;;;;;17.20;13.02;;;;;;;8.66;100.00;99918.44;5031536;28;20286;-73
2022/11/15 05:12:35;;;;;;;19.20;13.35;;;;;;;8.68;100.00;99920.16;5033520;28;20230;-72
2022/11/15 05:15:02;;;;;;;16.15;12.05;;;;;;;8.68;100.00;99909.41;5037398;28;20225;-72
2022/11/15 05:17:29;;;;;;;16.42;12.07;;;;;;;8.76;100.00;99914.41;5034525;28;20645;-73
2022/11/15 05:19:55;;;;;;;20.58;12.27;;;;;;;8.76;100.00;99912.59;5035814;28;20206;-73
2022/11/15 05:22:22;;;;;;;15.05;12.23;;;;;;;8.75;100.00;99904.59;5035275;28;20201;-72
2022/11/15 05:24:50;;;;;;;18.95;12.13;;;;;;;8.76;100.00;99909.06;5036972;28;20206;-71
2022/11/15 05:27:17;;;;;;;13.57;10.68;;;;;;;8.78;100.00;99907.16;5033955;28;20266;-72
2022/11/15 05:29:43;;;;;;;35.50;23.23;;;;;;;8.80;100.00;99909.78;5021567;28;20225;-74
2022/11/15 05:32:10;;;;;;;26.67;17.90;;;;;;;8.76;100.00;99904.56;5018520;28;20211;-73
2022/11/15 05:34:37;;;;;;;17.58;11.68;;;;;;;8.95;100.00;99904.59;5015368;28;20191;-74
2022/11/15 05:37:04;;;;;;;14.85;11.07;;;;;;;9.12;100.00;99908.28;5020662;28;20266;-73
2022/11/15 05:39:31;;;;;;;13.35;10.02;;;;;;;9.19;100.00;99909.75;5024841;28;20308;-73
2022/11/15 05:42:03;;;;;;;14.80;11.73;;;;;;;9.16;100.00;99909.91;5022500;28;20206;-73
2022/11/15 05:44:32;;;;;;;13.45;11.00;;;;;;;9.08;100.00;99906.69;5013672;28;20183;-72
2022/11/15 05:46:59;;;;;;;14.27;10.27;;;;;;;9.11;100.00;99902.06;5007450;28;20222;-72
2022/11/15 05:49:31;;;;;;;13.52;10.13;;;;;;;9.17;100.00;99896.38;5014276;28;20229;-72
2022/11/15 05:51:59;;;;;;;11.00;9.00;;;;;;;9.23;100.00;99895.22;5013630;28;20194;-74
2022/11/15 05:54:26;;;;;;;12.27;9.93;;;;;;;9.26;100.00;99899.56;5013984;28;20674;-73
2022/11/15 05:56:53;;;;;;;12.13;8.98;;;;;;;9.34;100.00;99898.25;5014318;28;20190;-73
2022/11/15 05:59:21;;;;;;;10.50;8.90;;;;;;;9.53;100.00;99894.66;5006003;28;20313;-74
2022/11/15 06:01:48;;;;;;;10.35;8.63;;;;;;;9.64;100.00;99900.38;5013637;28;20207;-74
2022/11/15 06:04:14;;;;;;;10.05;8.38;;;;;;;9.64;100.00;99902.22;5021601;28;20202;-73
2022/11/15 06:06:41;;;;;;;8.60;7.68;;;;;;;9.66;100.00;99903.88;5019611;28;20317;-74
2022/11/15 06:09:08;;;;;;;11.80;7.85;;;;;;;9.80;100.00;99911.25;5020190;28;20225;-75
2022/11/15 06:11:34;;;;;;;12.65;7.80;;;;;;;9.93;100.00;99911.53;5017186;28;20252;-74
2022/11/15 06:14:01;;;;;;;10.13;7.10;;;;;;;10.02;100.00;99911.06;5014571;28;20203;-77
2022/11/15 06:16:28;;;;;;;10.55;7.10;;;;;;;10.11;100.00;99889.06;5014098;28;20199;-74
2022/11/15 06:18:55;;;;;;;8.95;7.05;;;;;;;10.18;100.00;99890.47;5013597;28;20226;-72
2022/11/15 06:21:22;;;;;;;10.60;7.80;;;;;;;10.20;100.00;99898.47;5014616;28;20585;-75
2022/11/15 06:23:49;;;;;;;10.25;7.05;;;;;;;10.27;100.00;99902.59;5014839;28;20229;-75
2022/11/15 06:26:15;;;;;;;11.30;8.05;;;;;;;10.31;100.00;99900.63;5025251;28;20703;-74
2022/11/15 06:28:42;;;;;;;8.68;6.13;;;;;;;10.43;100.00;99898.16;5020042;28;20218;-76
2022/11/15 06:31:11;;;;;;;11.10;7.15;;;;;;;10.50;100.00;99900.53;5022001;28;20203;-75
2022/11/15 06:33:40;;;;;;;9.88;7.25;;;;;;;10.63;100.00;99899.81;5020372;28;20210;-77
2022/11/15 06:36:09;;;;;;;9.20;6.88;;;;;;;10.74;100.00;99903.72;5014214;28;20614;-75
2022/11/15 06:38:36;;;;;;;10.80;7.13;;;;;;;10.76;100.00;99901.81;5015106;28;20223;-76
2022/11/15 06:41:04;;;;;;;9.45;5.97;;;;;;;10.89;100.00;99902.03;5016527;28;20207;-74
2022/11/15 06:43:30;;;;;;;10.38;7.25;;;;;;;10.95;100.00;99905.25;5016986;28;20269;-73
2022/11/15 06:45:58;;;;;;;9.52;6.70;;;;;;;10.94;100.00;99898.13;5004653;28;20209;-75
2022/11/15 06:48:25;;;;;;;11.07;6.82;;;;;;;11.02;100.00;99895.03;5021681;28;20278;-76
2022/11/15 06:50:54;;;;;;;8.80;6.45;;;;;;;11.11;100.00;99878.34;5019025;28;20210;-74
2022/11/15 06:53:21;;;;;;;10.07;6.22;;;;;;;11.13;100.00;99887.22;5019805;28;20660;-74
2022/11/15 06:55:48;;;;;;;10.20;7.07;;;;;;;11.15;100.00;99893.38;5020230;28;20321;-74
2022/11/15 06:58:14;;;;;;;11.38;7.30;;;;;;;11.19;100.00;99897.66;5019287;28;20197;-73
2022/11/15 07:00:41;;;;;;;13.02;9.75;;;;;;;11.17;100.00;99901.38;5020993;28;20224;-75
2022/11/15 07:03:08;;;;;;;9.13;7.00;;;;;;;11.15;100.00;99889.84;5017799;28;20206;-73
2022/11/15 07:05:35;;;;;;;8.02;7.05;;;;;;;11.13;100.00;99910.59;5006944;28;20229;-73
2022/11/15 07:08:03;;;;;;;8.35;6.65;;;;;;;11.11;100.00;99902.59;5015842;28;20223;-75
2022/11/15 07:10:30;;;;;;;8.43;6.90;;;;;;;11.09;100.00;99904.50;5016206;28;20219;-75
2022/11/15 07:12:57;;;;;;;8.40;7.05;;;;;;;11.05;100.00;99913.69;5016684;28;20591;-73
2022/11/15 07:15:26;;;;;;;11.30;8.20;;;;;;;11.08;100.00;99921.63;5015124;28;20629;-76
2022/11/15 07:17:52;;;;;;;10.57;7.35;;;;;;;11.07;100.00;99918.06;5015728;28;20290;-74
2022/11/15 07:20:19;;;;;;;16.13;7.80;;;;;;;11.12;100.00;99914.25;5011552;28;20223;-74
2022/11/15 07:22:46;;;;;;;10.15;7.50;;;;;;;11.37;100.00;99917.28;5015544;28;20377;-75
2022/11/15 07:25:14;;;;;;;13.23;7.25;;;;;;;12.13;100.00;99921.94;5026869;28;20266;-73
2022/11/15 07:27:40;;;;;;;9.25;7.50;;;;;;;13.30;100.00;99910.25;5018104;28;20222;-76
2022/11/15 07:30:08;;;;;;;10.38;7.80;;;;;;;14.16;100.00;99891.00;5018226;28;20301;-74
2022/11/15 07:32:35;;;;;;;10.90;7.72;;;;;;;14.33;100.00;99888.97;5018294;28;20203;-76
2022/11/15 07:35:01;;;;;;;12.20;7.57;;;;;;;14.73;100.00;99883.50;5018626;28;21515;-74
2022/11/15 07:37:28;;;;;;;12.05;7.68;;;;;;;15.55;100.00;99865.75;5017773;28;20191;-72
2022/11/15 07:39:55;;;;;;;9.10;7.20;;;;;;;16.23;100.00;99869.66;5018151;28;20622;-73
2022/11/15 07:45:07;;;;;;;10.43;7.38;;;;;;;16.51;100.00;99875.69;5016951;28;20201;-72
2022/11/15 07:47:34;;;;;;;9.93;7.28;;;;;;;16.04;100.00;99874.81;5017648;28;20230;-75
2022/11/15 07:50:00;;;;;;;7.95;6.72;;;;;;;15.26;100.00;99870.63;5015710;28;20595;-74
2022/11/15 07:52:27;;;;;;;11.63;7.25;;;;;;;14.67;100.00;99871.25;5011930;28;20289;-75
2022/11/15 07:54:53;;;;;;;11.52;7.72;;;;;;;14.31;100.00;99877.38;5015864;28;20297;-74
2022/11/15 07:57:21;;;;;;;9.65;7.82;;;;;;;14.06;100.00;99880.88;5016668;28;20199;-74
2022/11/15 07:59:49;;;;;;;11.30;8.43;;;;;;;13.86;100.00;99885.84;5015795;28;20301;-73
2022/11/15 08:02:17;;;;;;;11.40;8.00;;;;;;;13.74;100.00;99883.94;5015590;28;20312;-75
2022/11/15 08:04:44;;;;;;;9.98;7.03;;;;;;;13.67;100.00;99888.88;5014928;28;20580;-74
2022/11/15 08:07:11;;;;;;;10.90;7.97;;;;;;;13.66;100.00;99886.31;5013598;28;20222;-74
2022/11/15 08:09:37;;;;;;;10.80;7.03;;;;;;;13.63;100.00;99887.34;5012999;28;20224;-74
2022/11/15 08:12:05;;;;;;;9.75;8.02;;;;;;;13.67;100.00;99893.44;5015554;28;20285;-73
2022/11/15 08:14:31;;;;;;;10.82;6.70;;;;;;;13.71;100.00;99893.13;5017165;28;20203;-75
2022/11/15 08:16:59;;;;;;;7.63;6.60;;;;;;;13.73;100.00;99896.59;5017337;28;20290;-77
2022/11/15 08:19:26;;;;;;;9.50;7.25;;;;;;;13.75;100.00;99896.50;5016622;28;20662;-74
2022/11/15 08:21:52;;;;;;;9.18;7.20;;;;;;;13.70;100.00;99895.94;5016599;28;20203;-74
2022/11/15 08:24:20;;;;;;;8.48;7.00;;;;;;;13.63;100.00;99892.75;5016676;28;20205;-75
2022/11/15 08:26:46;;;;;;;9.90;7.47;;;;;;;13.26;100.00;99899.69;5011979;28;20273;-75
2022/11/15 08:29:13;;;;;;;8.23;6.55;;;;;;;13.05;100.00;99883.88;5015800;28;20635;-74
2022/11/15 08:31:40;;;;;;;6.65;5.90;;;;;;;12.92;100.00;99888.31;5017063;28;20211;-75
2022/11/15 08:34:08;;;;;;;19.45;7.00;;;;;;;12.89;100.00;99883.97;5016065;28;20191;-74
2022/11/15 08:36:34;;;;;;;8.55;6.85;;;;;;;12.90;100.00;99879.44;5016650;28;20675;-73
2022/11/15 08:39:01;;;;;;;10.15;7.45;;;;;;;13.05;100.00;99883.00;5016681;28;20232;-73
2022/11/15 08:41:31;;;;;;;11.25;6.80;;;;;;;13.13;100.00;99883.38;5017281;28;20841;-73
2022/11/15 08:43:57;;;;;;;10.52;7.05;;;;;;;13.19;100.00;99884.81;5023153;28;20207;-75
2022/11/15 08:46:24;;;;;;;9.75;7.25;;;;;;;13.20;100.00;99883.84;5024410;28;20209;-75
2022/11/15 08:48:50;;;;;;;8.43;7.50;;;;;;;13.17;100.00;99881.34;5020791;28;20709;-73
2022/11/15 08:51:18;;;;;;;7.72;6.57;;;;;;;13.19;100.00;99880.28;5017477;28;20286;-75
2022/11/15 08:53:45;;;;;;;8.10;7.03;;;;;;;13.14;100.00;99880.56;5016216;28;20202;-73
2022/11/15 08:56:14;;;;;;;8.30;6.32;;;;;;;13.17;100.00;99884.91;5015915;28;20203;-73
2022/11/15 08:58:42;;;;;;;10.77;7.80;;;;;;;13.20;100.00;99882.00;5014442;28;20238;-75
2022/11/15 09:01:16;;;;;;;8.73;7.22;;;;;;;13.15;100.00;99878.72;5017267;28;20198;-74
2022/11/15 09:03:43;;;;;;;9.45;7.72;;;;;;;13.10;100.00;99881.75;5016596;28;20197;-73
2022/11/15 09:06:09;;;;;;;9.02;6.95;;;;;;;13.16;100.00;99883.19;5020596;28;20270;-75
2022/11/15 09:08:37;;;;;;;11.15;7.10;;;;;;;13.18;100.00;99878.53;5020323;28;20707;-75
2022/11/15 09:11:05;;;;;;;8.55;6.35;;;;;;;13.24;100.00;99879.97;5027225;28;20237;-73
2022/11/15 09:13:31;;;;;;;8.30;6.35;;;;;;;13.36;100.00;99873.78;5026560;28;20217;-75
2022/11/15 09:15:58;;;;;;;7.85;7.03;;;;;;;13.49;100.00;99877.44;5020283;28;20289;-74
2022/11/15 09:18:25;;;;;;;8.00;6.45;;;;;;;13.49;100.00;99869.31;5016320;28;20203;-73
2022/11/15 09:20:52;;;;;;;10.00;7.13;;;;;;;13.26;100.00;99875.34;5003956;28;20229;-73
2022/11/15 09:23:18;;;;;;;8.43;6.28;;;;;;;13.31;100.00;99873.25;5022859;28;20205;-74
2022/11/15 09:25:46;;;;;;;11.40;6.95;;;;;;;13.50;100.00;99876.47;5025114;28;20221;-74
2022/11/15 09:28:13;;;;;;;8.93;6.18;;;;;;;13.68;100.00;99870.81;5022185;28;20290;-74
2022/11/15 09:30:39;;;;;;;9.27;5.85;;;;;;;13.51;100.00;99872.78;5020236;28;20572;-74
2022/11/15 09:33:09;;;;;;;9.43;6.57;;;;;;;13.12;100.00;99870.84;5024572;28;20237;-76
2022/11/15 09:35:36;;;;;;;7.38;6.38;;;;;;;13.12;100.00;99876.25;5024046;28;20245;-73
2022/11/15 09:38:04;;;;;;;9.00;6.30;;;;;;;12.98;100.00;99860.91;5024287;28;20230;-74
2022/11/15 09:40:32;;;;;;;9.25;6.38;;;;;;;13.09;100.00;99866.50;5068486;22;20290;-72
2022/11/15 09:43:21;;;;;;;7.80;6.97;;;;;;;13.28;100.00;99863.50;5069404;28;20260;-72
2022/11/15 09:46:00;;;;;;;9.20;6.72;;;;;;;13.25;100.00;99860.97;5049504;28;20241;-73
2022/11/15 09:48:48;;;;;;;9.20;6.05;;;;;;;13.52;100.00;99857.44;5045014;28;20214;-72
2022/11/15 09:51:24;;;;;;;10.02;6.43;;;;;;;14.29;100.00;99853.13;5028650;28;20193;-72
2022/11/15 09:53:58;;;;;;;9.00;6.78;;;;;;;14.77;100.00;99844.38;5027805;28;20221;-71
2022/11/15 09:56:28;;;;;;;6.47;5.63;;;;;;;15.59;100.00;99845.56;5025619;28;20194;-74
2022/11/15 09:59:06;;;;;;;8.63;6.13;;;;;;;16.61;100.00;99843.19;5019040;28;20290;-73
2022/11/15 10:01:42;;;;;;;7.15;5.90;;;;;;;17.23;100.00;99844.56;5020939;28;20545;-73
2022/11/15 10:04:10;;;;;;;7.72;5.55;;;;;;;17.04;100.00;99834.34;5017694;28;20221;-75
2022/11/15 10:06:42;;;;;;;8.38;5.30;;;;;;;17.47;100.00;99833.53;5009722;28;20217;-73
2022/11/15 10:09:16;;;;;;;6.03;4.80;;;;;;;17.82;100.00;99836.06;5012114;28;20317;-74
2022/11/15 10:11:43;;;;;;;5.80;5.20;;;;;;;18.40;98.36;99821.13;5007170;28;20198;-73
2022/11/15 10:14:16;;;;;;;6.70;4.93;;;;;;;18.30;96.12;99826.53;5005504;28;20442;-73
2022/11/15 10:17:12;;;;;;;8.10;5.03;;;;;;;18.22;97.29;99812.69;5006314;28;20812;-72
2022/11/15 10:19:48;;;;;;;7.20;5.67;;;;;;;16.64;100.00;99818.47;5012605;28;20540;-72
2022/11/15 10:22:25;;;;;;;8.85;5.45;;;;;;;15.92;100.00;99816.88;5005827;28;20985;-73
2022/11/15 10:24:59;;;;;;;8.07;5.85;;;;;;;15.30;100.00;99807.03;5010699;28;20582;-73
2022/11/15 10:27:26;;;;;;;7.90;5.78;;;;;;;15.23;100.00;99808.47;4997096;28;20617;-72
2022/11/15 10:29:54;;;;;;;9.40;6.40;;;;;;;14.58;100.00;99802.34;5011954;28;20227;-71
2022/11/15 10:32:22;;;;;;;7.05;5.70;;;;;;;14.36;100.00;99805.66;5013077;28;20289;-72
2022/11/15 10:34:49;;;;;;;9.07;5.93;;;;;;;14.45;100.00;99808.66;5002371;28;20289;-72
2022/11/15 10:37:28;;;;;;;8.43;5.45;;;;;;;14.21;100.00;99806.72;5014630;28;20221;-73
2022/11/15 10:40:05;;;;;;;7.53;5.55;;;;;;;14.03;100.00;99808.88;5010475;28;20333;-72
2022/11/15 10:42:32;;;;;;;8.30;6.60;;;;;;;13.80;100.00;99799.63;5004553;28;20198;-72
2022/11/15 10:45:00;;;;;;;7.00;5.68;;;;;;;13.95;100.00;99794.97;5001089;28;20198;-73
2022/11/15 10:47:30;;;;;;;10.00;5.45;;;;;;;13.98;100.00;99792.94;5012751;28;20226;-74
2022/11/15 10:50:00;;;;;;;7.15;6.18;;;;;;;14.03;100.00;99797.19;5013135;28;20222;-73
2022/11/15 10:52:29;;;;;;;9.73;6.10;;;;;;;13.86;100.00;99796.53;5010392;28;20209;-73
2022/11/15 10:55:01;;;;;;;6.85;5.90;;;;;;;14.00;100.00;99791.97;5013004;28;20210;-73
2022/11/15 10:57:30;;;;;;;8.43;6.55;;;;;;;14.05;100.00;99792.53;5012692;28;20201;-72
2022/11/15 11:00:02;;;;;;;10.80;6.93;;;;;;;13.92;100.00;99779.81;5011009;28;20228;-73
2022/11/15 11:02:35;;;;;;;7.53;6.05;;;;;;;13.81;100.00;99771.59;5007493;28;20639;-74
2022/11/15 11:05:04;;;;;;;12.23;6.75;;;;;;;14.07;100.00;99763.50;5009686;28;20610;-73
2022/11/15 11:07:33;;;;;;;7.40;5.43;;;;;;;14.14;100.00;99762.09;5011266;28;20237;-74
2022/11/15 11:10:02;;;;;;;11.15;6.22;;;;;;;14.49;100.00;99756.88;5009848;28;20219;-74
2022/11/15 11:12:31;;;;;;;8.43;6.00;;;;;;;14.45;100.00;99749.06;4998373;28;20192;-74
2022/11/15 11:14:59;;;;;;;5.90;5.30;;;;;;;14.51;100.00;99744.09;5009093;28;20238;-74
2022/11/15 11:17:37;;;;;;;10.48;6.03;;;;;;;14.69;100.00;99739.19;5015243;28;20202;-73
2022/11/15 11:20:11;;;;;;;10.93;7.90;;;;;;;15.04;100.00;99740.28;5005978;28;20223;-73
2022/11/15 11:22:45;;;;;;;6.75;5.65;;;;;;;15.64;100.00;99731.19;5005616;28;20682;-73
2022/11/15 11:25:23;;;;;;;8.95;5.25;;;;;;;15.97;100.00;99721.47;5013359;28;20679;-73
2022/11/15 11:28:03;;;;;;;7.68;5.13;;;;;;;15.54;100.00;99728.34;5005954;28;20253;-72
2022/11/15 11:30:43;;;;;;;8.70;5.55;;;;;;;15.18;100.00;99726.59;5014170;28;20313;-74
2022/11/15 11:33:18;;;;;;;9.52;4.97;;;;;;;15.05;100.00;99729.34;5010131;28;20293;-74
2022/11/15 11:35:55;;;;;;;6.97;4.82;;;;;;;15.36;100.00;99711.63;5012352;28;20199;-74
2022/11/15 11:38:44;;;;;;;7.50;5.53;;;;;;;15.32;100.00;99715.53;5004325;28;20318;-73
2022/11/15 11:41:20;;;;;;;6.75;5.47;;;;;;;15.79;100.00;99718.34;5012399;28;20290;-71